Acadiana Regional Airport
KARA : now visible

Airfield :











YOU CAN JOIN US ON...

 
LOGIN :

Register | Disclaimer

   EN    FR    IT 

 









Legend :    VFR   Marginal VFR   IFR   Intensive IFR   Very Intensive IFR
Visi :
Ceiling :
>= 8 km
>= 3000ft
5 to 8 km
1000 to 3000 ft
1500m to 5 km
500 to 1000 ft
800 to 1500m
200 to 500 ft
< 800m
< 200 ft
Symbols :   Thunderstorms  Fog  Heavy snow  Heavy precipitations  Wind > 20 kt






- Airport Elevation : 24 ft


KARA - Acadiana Regional

CURRENT METAR :
  • 271353Z 06006KT 10SM FEW055 22/19 A3000 RMK AO2 SLP158 T02170194

EXPIRED METARs :
  • 271253Z 06004KT 10SM CLR 20/19 A2999 RMK AO2 SLP156 T02000189
  • 271153Z 01008KT 8SM BKN055 19/19 A2998 RMK AO2 SLP153 T01940189 10200 20178 58003

TAF KARA
Valid from the 27 at 12:00 until the 28 at 12:00 UTC


271137Z 2712/2812 05006KT P6SM FEW040
TEMPO 2712/2714 5SM BR
FM271400 05008KT P6SM SCT012 BKN035
FM271800 06010G15KT P6SM VCSH SCT025 BKN050
FM280100 03012G18KT P6SM VCSH OVC015
PROB30 2801/2807 4SM SHRA
FM280700 03012G18KT P6SM VCSH OVC008
TEMPO 2807/2811 4SM SHRA
KZHU FIR / North America



MET'MAP, your aeronautical weather chart ! - Copyright ORBIFLY December 2007 - Disclaimer

ORBIFLY MET'MAP TEAM :

Programming & Development : Alexandra Zaïnal
Concept & original design : Baudouin d'Aumeries
Assistance for programming : Marc-Olivier Méhu
Technical & hardware support : Manuel Goepfert

Contact : metmap@orbifly.com




SOURCES & CREDITS :

   NOAA       Earth
Advisory